This is the latest recevied weather packets stored in our database for station/object OK1ALX-6. If no packets are shown the sender has not sent any weather packets the latest 1 day(s).
| Time | Temp. | Humidity | Pressure | Rain* | Wind** | Luminosity | Snow |
|---|---|---|---|---|---|---|---|
| 1777981203 | 23.33° C | 43% | 1010.5 hPa | 0 mm | 1.34 m/s, 143° | 573 W/m² | - |
| 1777980603 | 23.89° C | 40% | 1010.4 hPa | 0 mm | 1.34 m/s, 79° | 289 W/m² | - |
| 1777979403 | 22.78° C | 40% | 1010.5 hPa | 0 mm | 1.34 m/s, 113° | 640 W/m² | - |
| 1777978803 | 22.78° C | 42% | 1010.7 hPa | 0 mm | 0.89 m/s, 41° | 623 W/m² | - |
| 1777978203 | 22.22° C | 41% | 1010.7 hPa | 0 mm | 1.34 m/s, 52° | 680 W/m² | - |
| 1777977611 | 22.22° C | 42% | 1011 hPa | 0 mm | 0.89 m/s, 68° | 636 W/m² | - |
| 1777977003 | 22.22° C | 42% | 1011.1 hPa | 0 mm | 0.89 m/s, 65° | 688 W/m² | - |
| 1777976403 | 22.78° C | 40% | 1011.6 hPa | 0 mm | 0.45 m/s, 46° | 685 W/m² | - |
| 1777975803 | 21.67° C | 43% | 1011.6 hPa | 0 mm | 0.45 m/s, 111° | 705 W/m² | - |
| 1777975203 | 21.67° C | 42% | 1011.5 hPa | 0 mm | 0.45 m/s, 85° | 705 W/m² | - |
| 1777974603 | 21.67° C | 43% | 1011.8 hPa | 0 mm | 0.89 m/s, 49° | 715 W/m² | - |
| 1777974003 | 21.11° C | 43% | 1012 hPa | 0 mm | 0.89 m/s, 103° | 670 W/m² | - |
| 1777973411 | 20° C | 45% | 1012.1 hPa | 0 mm | 1.34 m/s, 100° | 707 W/m² | - |
| 1777972803 | 20° C | 45% | 1012.1 hPa | 0 mm | 0.89 m/s, 138° | 689 W/m² | - |
| 1777972203 | 20.56° C | 45% | 1012.1 hPa | 0 mm | 1.34 m/s, 112° | 596 W/m² | - |
| 1777971603 | 20° C | 47% | 1012.3 hPa | 0 mm | 1.34 m/s, 90° | 604 W/m² | - |
| 1777971003 | 19.44° C | 46% | 1012.5 hPa | 0 mm | 0.89 m/s, 92° | 629 W/m² | - |
| 1777970403 | 19.44° C | 46% | 1012.6 hPa | 0 mm | 1.34 m/s, 110° | 644 W/m² | - |
| 1777969803 | 18.89° C | 47% | 1012.3 hPa | 0 mm | 0.89 m/s, 86° | 566 W/m² | - |
| 1777969203 | 18.33° C | 48% | 1012.6 hPa | 0 mm | 1.79 m/s, 114° | 613 W/m² | - |
| 1777968603 | 18.89° C | 48% | 1012.7 hPa | 0 mm | 1.34 m/s, 122° | 608 W/m² | - |
| 1777968003 | 18.33° C | 48% | 1013 hPa | 0 mm | 1.79 m/s, 121° | 582 W/m² | - |
| 1777967403 | 18.33° C | 48% | 1013.2 hPa | 0 mm | 1.79 m/s, 134° | 559 W/m² | - |
| 1777966803 | 18.33° C | 48% | 1013.1 hPa | 0 mm | 1.34 m/s, 144° | 522 W/m² | - |
| 1777966203 | 17.78° C | 50% | 1013.4 hPa | 0 mm | 1.79 m/s, 131° | 506 W/m² | - |
* Rain latest hour (hover to see other rain measurements)
** Current wind speed in m/s (hover to see current wind gust speed)